CheckWX is a tool to help pilots better visualize weather data.  It is not intended as a substitute for an official pre-flight weather briefing.

01:11:29 UTC

KEBS METAR
Webster City Municipal Airport
Webster City, Iowa, USA
Current

36 mins ago

KEBS 240035Z AUTO 11011KT 10SM BKN075 OVC090 08/05 A3007 RMK AO2
Observed
Mar-24 @ 00:35 UTC
Wind
  • 110° at 11 KTS
Visibility
10 SM
Flight Rules
VFR
Cloud Levels
  • Broken at 7,500' AGL
  • Overcast at 9,000' AGL
Temperature
C / 46°F
Dewpoint
C / 41°F
Humidity
82%
Altimeter
30.07" Hg
Pressure
1018.32 hPa
Previous

56 mins ago

KEBS 240015Z AUTO 11009KT 10SM SCT070 OVC095 08/06 A3007 RMK AO2
Observed
Mar-24 @ 00:15 UTC
Wind
  • 110° at 9 KTS
Visibility
10 SM
Flight Rules
VFR
Cloud Levels
  • Scattered at 7,000' AGL
  • Overcast at 9,500' AGL
Temperature
C / 46°F
Dewpoint
C / 43°F
Humidity
87%
Altimeter
30.07" Hg
Pressure
1018.32 hPa
Previous

1 hour ago

KEBS 232355Z AUTO 10009KT 10SM FEW060 SCT075 BKN100 08/06 A3007 RMK AO2
Observed
Mar-23 @ 23:55 UTC
Wind
  • 100° at 9 KTS
Visibility
10 SM
Flight Rules
VFR
Cloud Levels
  • Few at 6,000' AGL
  • Scattered at 7,500' AGL
  • Broken at 10,000' AGL
Temperature
C / 46°F
Dewpoint
C / 43°F
Humidity
87%
Altimeter
30.07" Hg
Pressure
1018.32 hPa